Time;durP1;ratioP1;P1;durP2;ratioP2;P2;SDS_P1;SDS_P2;PMS_P1;PMS_P2;Temp;Humidity;BMP_temperature;BMP_pressure;BME280_temperature;BME280_humidity;BME280_pressure;Samples;Min_cycle;Max_cycle;Signal;HPM_P1;HPM_P2
2021/04/02 00:03:39;;;;;;;5.80;4.40;;;;;;;6.12;100.00;98720.14;3759390;79;44208;-23
2021/04/02 00:08:45;;;;;;;4.80;4.22;;;;;;;6.16;100.00;98717.59;3761197;77;44007;-23
2021/04/02 00:13:51;;;;;;;6.93;3.97;;;;;;;5.99;100.00;98712.72;3758718;77;43058;-23
2021/04/02 00:18:57;;;;;;;5.75;4.35;;;;;;;5.99;100.00;98720.30;3750641;77;44087;-20
2021/04/02 00:24:04;;;;;;;5.67;4.30;;;;;;;6.12;100.00;98713.45;3759124;79;43673;-23
2021/04/02 00:29:11;;;;;;;4.70;4.12;;;;;;;6.11;100.00;98713.09;3758997;79;44062;-23
2021/04/02 00:34:17;;;;;;;7.07;4.30;;;;;;;6.09;100.00;98704.84;3759620;79;43709;-23
2021/04/02 00:39:23;;;;;;;4.60;3.87;;;;;;;6.04;100.00;98707.89;3759302;79;43342;-23
2021/04/02 00:44:30;;;;;;;6.08;4.08;;;;;;;6.04;100.00;98701.67;3763802;77;43697;-23
2021/04/02 00:49:36;;;;;;;5.95;4.25;;;;;;;6.04;100.00;98701.67;3759078;77;43676;-23
2021/04/02 00:54:42;;;;;;;6.45;4.80;;;;;;;6.05;100.00;98702.91;3759634;77;43309;-23
2021/04/02 00:59:48;;;;;;;5.65;4.22;;;;;;;6.01;100.00;98700.11;3759336;79;43193;-23
2021/04/02 01:04:55;;;;;;;6.62;4.80;;;;;;;6.08;100.00;98693.27;3759870;78;43087;-23
2021/04/02 01:10:01;;;;;;;6.58;4.80;;;;;;;5.89;100.00;98699.23;3759924;79;43700;-23
2021/04/02 01:15:14;;;;;;;7.72;5.47;;;;;;;5.82;100.00;98691.36;3759925;79;44481;-25
2021/04/02 01:20:23;;;;;;;6.40;5.10;;;;;;;5.80;100.00;98691.50;3760720;77;43678;-23
2021/04/02 01:25:37;;;;;;;10.38;6.37;;;;;;;5.62;100.00;98686.28;3759156;77;43371;-22
2021/04/02 01:30:44;;;;;;;9.68;6.28;;;;;;;5.72;100.00;98685.90;3759667;79;43618;-23
2021/04/02 01:35:52;;;;;;;7.90;5.78;;;;;;;5.60;100.00;98688.22;3759042;79;43375;-25
2021/04/02 01:41:02;;;;;;;10.00;6.57;;;;;;;5.46;100.00;98692.88;3759167;79;70133;-23
2021/04/02 01:46:10;;;;;;;9.70;7.00;;;;;;;5.43;100.00;98691.77;3759682;78;43713;-23
2021/04/02 01:51:18;;;;;;;9.08;6.80;;;;;;;5.48;100.00;98698.09;3759202;77;69083;-23
2021/04/02 01:56:25;;;;;;;9.75;6.65;;;;;;;5.48;100.00;98695.41;3759032;77;43123;-23
2021/04/02 02:01:35;;;;;;;10.48;7.30;;;;;;;5.42;100.00;98698.55;3759374;79;43998;-23
2021/04/02 02:06:42;;;;;;;11.78;7.45;;;;;;;5.47;100.00;98698.55;3759855;77;43725;-24
2021/04/02 02:11:56;;;;;;;12.43;7.63;;;;;;;5.37;100.00;98699.79;3758832;77;75269;-23
2021/04/02 02:17:08;;;;;;;12.78;8.10;;;;;;;5.49;100.00;98699.28;3757879;78;26474;-25
2021/04/02 02:22:15;;;;;;;12.33;8.15;;;;;;;5.37;100.00;98697.59;3759768;79;43420;-23
2021/04/02 02:27:23;;;;;;;12.93;7.63;;;;;;;5.41;100.00;98691.04;3758553;77;75406;-24
2021/04/02 02:32:31;;;;;;;9.65;7.00;;;;;;;5.44;100.00;98697.95;3759174;77;43729;-22
2021/04/02 02:37:39;;;;;;;12.90;8.38;;;;;;;5.44;100.00;98696.62;3759950;79;44165;-25
2021/04/02 02:42:46;;;;;;;13.62;8.03;;;;;;;5.47;100.00;98698.55;3759873;79;43420;-22
2021/04/02 02:47:53;;;;;;;12.47;7.95;;;;;;;5.46;100.00;98695.55;3759191;78;43443;-22
2021/04/02 02:53:00;;;;;;;13.93;8.83;;;;;;;5.48;100.00;98692.73;3757707;79;75285;-23
2021/04/02 02:58:08;;;;;;;12.87;8.53;;;;;;;5.51;100.00;98694.67;3758691;78;43997;-22
2021/04/02 03:03:17;;;;;;;13.43;8.40;;;;;;;5.62;100.00;98693.83;3759347;77;43289;-23
2021/04/02 03:08:27;;;;;;;13.18;8.10;;;;;;;5.60;100.00;98693.56;3758985;77;26358;-23
2021/04/02 03:13:34;;;;;;;14.37;8.70;;;;;;;5.56;100.00;98700.98;3757700;79;75685;-23
2021/04/02 03:18:41;;;;;;;17.32;8.48;;;;;;;5.50;100.00;98691.63;3759006;79;43672;-23
2021/04/02 03:23:49;;;;;;;19.55;9.58;;;;;;;5.53;100.00;98696.75;3759608;79;43301;-23
2021/04/02 03:28:57;;;;;;;20.48;10.18;;;;;;;5.55;100.00;98682.78;3756710;77;43021;-23
2021/04/02 03:34:05;;;;;;;15.85;8.38;;;;;;;5.44;100.00;98681.45;3756897;79;44039;-23
2021/04/02 03:39:15;;;;;;;18.45;8.73;;;;;;;5.41;100.00;98673.67;3761027;77;43699;-23
2021/04/02 03:44:24;;;;;;;16.75;8.90;;;;;;;5.33;100.00;98673.44;3759010;77;43996;-23
2021/04/02 03:49:32;;;;;;;17.20;8.93;;;;;;;5.32;100.00;98677.91;3759325;79;43669;-23
2021/04/02 03:54:40;;;;;;;16.63;8.30;;;;;;;5.33;100.00;98678.78;3759757;79;43703;-23
2021/04/02 03:59:51;;;;;;;14.90;7.90;;;;;;;5.27;100.00;98685.93;3759259;79;44160;-23
2021/04/02 04:05:00;;;;;;;16.85;7.70;;;;;;;5.15;100.00;98677.08;3761360;77;44087;-23
2021/04/02 04:10:08;;;;;;;13.75;7.75;;;;;;;5.08;100.00;98674.03;3760082;77;43623;-23
2021/04/02 04:15:16;;;;;;;15.23;8.00;;;;;;;5.03;100.00;98662.38;3758956;77;42844;-23
2021/04/02 04:20:24;;;;;;;12.70;6.30;;;;;;;5.01;100.00;98668.32;3759604;78;44035;-23
2021/04/02 04:25:34;;;;;;;10.33;5.40;;;;;;;4.96;100.00;98665.65;3754266;79;26469;-23
2021/04/02 04:30:42;;;;;;;11.65;5.35;;;;;;;4.85;100.00;98660.66;3763091;77;43697;-25
2021/04/02 04:35:49;;;;;;;8.30;4.77;;;;;;;4.78;100.00;98656.28;3758376;79;69205;-23
2021/04/02 04:40:56;;;;;;;10.40;5.22;;;;;;;4.65;100.00;98670.66;3759651;79;44013;-23
2021/04/02 04:46:03;;;;;;;10.78;5.42;;;;;;;4.61;100.00;98668.25;3758298;77;43710;-23
2021/04/02 04:51:10;;;;;;;9.80;4.93;;;;;;;4.56;100.00;98669.58;3730613;78;44050;-23
2021/04/02 04:56:17;;;;;;;10.37;5.60;;;;;;;4.55;100.00;98671.38;3731915;79;44466;-25
2021/04/02 05:01:25;;;;;;;9.10;5.27;;;;;;;4.58;100.00;98677.81;3733503;79;69021;-24
2021/04/02 05:06:33;;;;;;;8.85;5.58;;;;;;;4.55;100.00;98678.05;3734301;79;44515;-24
2021/04/02 05:11:42;;;;;;;10.90;5.72;;;;;;;4.45;100.00;98683.25;3732792;79;73170;-22
2021/04/02 05:16:48;;;;;;;11.20;6.07;;;;;;;4.45;100.00;98681.91;3733831;79;44069;-23
2021/04/02 05:21:55;;;;;;;11.83;7.80;;;;;;;4.43;100.00;98690.98;3734881;78;43704;-23
2021/04/02 05:27:02;;;;;;;14.23;8.80;;;;;;;4.43;100.00;98695.84;3733278;78;43416;-23
2021/04/02 05:32:09;;;;;;;15.43;8.73;;;;;;;4.34;100.00;98705.02;3729396;79;43737;-22
2021/04/02 05:37:15;;;;;;;12.40;7.33;;;;;;;4.16;100.00;98710.77;3733466;78;44051;-23
2021/04/02 05:42:24;;;;;;;9.75;6.60;;;;;;;4.12;100.00;98716.78;3733850;79;43669;-24
2021/04/02 05:47:32;;;;;;;8.58;5.47;;;;;;;4.07;100.00;98709.62;3736503;78;43471;-25
2021/04/02 05:52:41;;;;;;;8.70;5.42;;;;;;;4.05;100.00;98710.21;3759013;77;43986;-23
2021/04/02 05:57:48;;;;;;;10.15;5.25;;;;;;;4.12;100.00;98718.11;3757197;77;44030;-23
2021/04/02 06:02:55;;;;;;;9.33;5.60;;;;;;;4.14;100.00;98723.36;3757068;77;43571;-23
2021/04/02 06:08:02;;;;;;;9.73;5.67;;;;;;;4.14;100.00;98731.35;3753733;79;69984;-22
2021/04/02 06:13:08;;;;;;;8.53;5.97;;;;;;;4.07;100.00;98730.08;3761120;77;43486;-22
2021/04/02 06:18:16;;;;;;;13.67;7.53;;;;;;;4.11;100.00;98736.91;3759683;78;44185;-22
2021/04/02 06:23:24;;;;;;;10.87;7.40;;;;;;;4.13;100.00;98737.16;3760101;79;43741;-22
2021/04/02 06:28:32;;;;;;;12.40;7.90;;;;;;;4.08;100.00;98735.78;3759191;77;43728;-25
2021/04/02 06:33:40;;;;;;;8.20;5.23;;;;;;;4.11;100.00;98755.11;3753653;77;43385;-23
2021/04/02 06:38:48;;;;;;;7.83;4.37;;;;;;;4.01;100.00;98754.05;3755385;77;44038;-23
2021/04/02 06:43:57;;;;;;;6.00;3.83;;;;;;;3.97;100.00;98757.42;3758499;78;44539;-23
2021/04/02 06:49:12;;;;;;;6.33;3.80;;;;;;;3.95;100.00;98751.34;3758807;78;44054;-23
2021/04/02 06:54:20;;;;;;;5.30;3.67;;;;;;;4.01;100.00;98749.58;3759761;79;44027;-23
2021/04/02 06:59:27;;;;;;;7.97;3.85;;;;;;;4.14;100.00;98756.69;3759584;77;44494;-23
2021/04/02 07:04:34;;;;;;;7.00;4.30;;;;;;;4.10;100.00;98751.20;3759685;77;43762;-23
2021/04/02 07:09:42;;;;;;;6.85;3.77;;;;;;;4.12;100.00;98751.45;3757783;77;43041;-23
2021/04/02 07:14:50;;;;;;;6.15;3.58;;;;;;;4.19;100.00;98755.85;3759670;77;43310;-23
2021/04/02 07:19:57;;;;;;;6.65;4.28;;;;;;;4.22;100.00;98761.47;3758619;79;44440;-23
2021/04/02 07:25:04;;;;;;;9.40;4.30;;;;;;;4.27;100.00;98768.16;3757676;79;69220;-23
2021/04/02 07:30:13;;;;;;;6.67;4.17;;;;;;;4.23;100.00;98774.67;3758960;79;43476;-23
2021/04/02 07:35:20;;;;;;;6.97;4.03;;;;;;;4.32;100.00;98782.00;3758846;77;43517;-23
2021/04/02 07:40:29;;;;;;;7.23;4.00;;;;;;;4.39;100.00;98773.56;3757288;77;69312;-23
2021/04/02 07:45:37;;;;;;;6.97;3.83;;;;;;;4.43;100.00;98771.88;3753044;77;43661;-23
2021/04/02 07:50:46;;;;;;;6.28;3.90;;;;;;;4.36;100.00;98779.11;3741365;79;44018;-22
2021/04/02 07:55:57;;;;;;;6.60;4.10;;;;;;;4.34;100.00;98785.03;3733232;79;43389;-23
2021/04/02 08:01:03;;;;;;;6.87;3.92;;;;;;;4.42;100.00;98786.64;3730241;79;44067;-23
2021/04/02 08:06:11;;;;;;;9.50;5.55;;;;;;;4.43;100.00;98793.22;3734557;79;43330;-22
2021/04/02 08:11:19;;;;;;;9.53;5.17;;;;;;;4.13;100.00;98790.98;3734132;79;43471;-23
2021/04/02 08:16:54;;;;;;;8.95;5.40;;;;;;;4.03;100.00;98804.11;3733512;78;44248;-23
2021/04/02 08:22:02;;;;;;;10.30;4.97;;;;;;;4.03;100.00;98808.61;3734460;78;43008;-23
2021/04/02 08:27:10;;;;;;;10.20;4.87;;;;;;;3.92;100.00;98804.90;3735357;78;44511;-23
2021/04/02 08:32:17;;;;;;;8.50;5.10;;;;;;;4.02;100.00;98813.07;3730311;79;69079;-23
2021/04/02 08:37:23;;;;;;;9.55;5.97;;;;;;;3.89;100.00;98818.90;3734906;78;43721;-23
2021/04/02 08:42:31;;;;;;;9.27;5.20;;;;;;;3.95;100.00;98823.32;3735826;79;44641;-23
2021/04/02 08:47:39;;;;;;;8.40;5.70;;;;;;;3.93;100.00;98827.94;3735097;79;43686;-23
2021/04/02 08:52:46;;;;;;;10.00;6.27;;;;;;;4.00;100.00;98818.52;3759045;77;43311;-23
2021/04/02 08:57:53;;;;;;;10.75;7.10;;;;;;;4.00;100.00;98829.66;3757597;77;43673;-23
2021/04/02 09:02:59;;;;;;;10.20;6.30;;;;;;;4.12;100.00;98823.94;3759751;79;43759;-23
2021/04/02 09:08:07;;;;;;;9.00;6.37;;;;;;;4.32;100.00;98804.67;3759314;79;43340;-23
2021/04/02 09:13:13;;;;;;;8.60;6.10;;;;;;;4.58;100.00;98803.73;3761068;77;43474;-23
2021/04/02 09:18:27;;;;;;;11.15;6.28;;;;;;;4.52;100.00;98797.50;3759534;77;43337;-23
2021/04/02 09:23:30;;;;;;;8.83;5.90;;;;;;;4.74;100.00;98800.77;3761064;77;43673;-24
2021/04/02 09:28:38;;;;;;;8.25;5.45;;;;;;;4.85;100.00;98789.27;3759047;77;43440;-24
2021/04/02 09:33:47;;;;;;;6.95;5.10;;;;;;;4.73;100.00;98789.22;3758220;77;69646;-24
2021/04/02 09:38:54;;;;;;;8.15;4.92;;;;;;;4.74;100.00;98792.77;3758065;77;43782;-24
2021/04/02 09:44:10;;;;;;;6.47;4.30;;;;;;;4.67;100.00;98796.37;3751048;79;44043;-24
2021/04/02 09:49:19;;;;;;;6.30;4.30;;;;;;;4.79;100.00;98781.23;3744448;77;43355;-24
2021/04/02 09:54:27;;;;;;;8.85;4.97;;;;;;;4.77;100.00;98782.70;3737685;79;44026;-22
2021/04/02 09:59:37;;;;;;;8.10;4.67;;;;;;;4.84;100.00;98775.55;3750154;77;45015;-25
2021/04/02 10:04:43;;;;;;;6.62;4.72;;;;;;;4.83;100.00;98772.05;3757884;77;43725;-25
2021/04/02 10:09:49;;;;;;;7.15;4.55;;;;;;;4.76;100.00;98772.98;3757888;77;44057;-25
2021/04/02 10:14:56;;;;;;;6.53;4.57;;;;;;;4.76;100.00;98766.81;3748730;79;68992;-25
2021/04/02 10:20:02;;;;;;;7.60;4.40;;;;;;;4.62;100.00;98771.36;3757539;79;70100;-22
2021/04/02 10:25:10;;;;;;;6.80;4.45;;;;;;;4.63;100.00;98760.20;3747944;79;44037;-22
2021/04/02 10:30:19;;;;;;;7.22;4.80;;;;;;;4.89;100.00;98755.55;3748876;77;43750;-22
2021/04/02 10:35:27;;;;;;;5.87;4.37;;;;;;;5.03;100.00;98750.97;3752458;77;69161;-23
2021/04/02 10:40:34;;;;;;;6.55;4.70;;;;;;;5.45;100.00;98749.95;3759309;77;44043;-23
2021/04/02 10:45:40;;;;;;;6.55;4.47;;;;;;;5.97;100.00;98726.70;3756063;79;43323;-22
2021/04/02 10:50:48;;;;;;;5.65;3.85;;;;;;;6.20;100.00;98719.98;3742296;78;43544;-22
2021/04/02 10:56:00;;;;;;;5.28;3.70;;;;;;;6.47;100.00;98714.17;3725866;79;44236;-22
2021/04/02 11:01:04;;;;;;;5.70;3.72;;;;;;;6.65;100.00;98698.90;3728714;79;43990;-23
2021/04/02 11:06:10;;;;;;;4.70;3.47;;;;;;;6.75;100.00;98694.46;3735066;78;43669;-23
2021/04/02 11:11:16;;;;;;;4.35;3.27;;;;;;;6.42;100.00;98697.16;3734482;78;43717;-23
2021/04/02 11:16:23;;;;;;;3.95;3.20;;;;;;;6.66;100.00;98698.76;3731154;78;43983;-24
2021/04/02 11:21:29;;;;;;;6.12;3.55;;;;;;;6.79;100.00;98688.71;3722625;79;44022;-22
2021/04/02 11:26:36;;;;;;;3.60;2.85;;;;;;;6.76;100.00;98686.79;3723743;79;44575;-24
2021/04/02 11:31:42;;;;;;;3.08;2.33;;;;;;;6.67;99.40;98691.09;3725244;78;43721;-23
2021/04/02 11:36:48;;;;;;;3.20;2.62;;;;;;;6.98;100.00;98689.83;3727711;79;44120;-23
2021/04/02 11:41:55;;;;;;;4.70;2.67;;;;;;;6.73;95.06;98689.25;3735071;79;44448;-23
2021/04/02 11:47:01;;;;;;;4.15;3.00;;;;;;;6.65;95.20;98686.85;3734837;78;44189;-23
2021/04/02 11:52:08;;;;;;;4.30;3.47;;;;;;;6.93;100.00;98688.89;3743281;78;44214;-24
2021/04/02 11:57:14;;;;;;;3.80;2.90;;;;;;;6.51;99.67;98701.41;3759807;79;43685;-24
2021/04/02 12:02:20;;;;;;;3.70;2.77;;;;;;;6.30;99.44;98693.70;3746505;79;43267;-24
2021/04/02 12:07:26;;;;;;;3.75;2.85;;;;;;;6.45;100.00;98692.90;3746440;78;43662;-22
2021/04/02 12:12:32;;;;;;;4.08;3.25;;;;;;;6.45;100.00;98690.22;3758683;79;44170;-23
2021/04/02 12:17:39;;;;;;;3.83;2.93;;;;;;;6.67;100.00;98682.22;3761000;77;43726;-23
2021/04/02 12:22:46;;;;;;;4.25;3.08;;;;;;;6.81;100.00;98668.98;3757174;77;43689;-23
2021/04/02 12:27:52;;;;;;;3.62;2.80;;;;;;;7.04;97.23;98656.31;3758548;77;42972;-23
2021/04/02 12:32:58;;;;;;;3.90;3.02;;;;;;;7.19;100.00;98648.76;3759742;77;43246;-24
2021/04/02 12:38:08;;;;;;;3.17;2.60;;;;;;;6.91;100.00;98634.60;3760489;79;43259;-24
2021/04/02 12:43:13;;;;;;;3.10;2.40;;;;;;;6.99;99.95;98634.41;3760645;79;43016;-23
2021/04/02 12:48:20;;;;;;;3.55;2.83;;;;;;;7.05;95.32;98624.02;3759063;77;44725;-23
2021/04/02 12:53:27;;;;;;;3.20;2.45;;;;;;;7.55;98.50;98619.69;3760837;77;43467;-23
2021/04/02 12:58:33;;;;;;;3.20;2.50;;;;;;;7.84;94.12;98613.52;3759754;77;43936;-22
2021/04/02 13:03:40;;;;;;;2.30;2.10;;;;;;;8.05;98.23;98605.86;3759361;77;42917;-22
2021/04/02 13:08:48;;;;;;;3.27;1.87;;;;;;;8.13;93.63;98611.37;3753891;79;43690;-22
2021/04/02 13:13:55;;;;;;;2.37;1.98;;;;;;;7.85;88.53;98601.33;3758696;79;43685;-23
2021/04/02 13:19:00;;;;;;;2.25;1.82;;;;;;;8.31;89.71;98585.50;3757790;79;44061;-24
2021/04/02 13:24:08;;;;;;;2.62;2.20;;;;;;;8.23;86.05;98580.00;3755688;79;43255;-23
2021/04/02 13:29:14;;;;;;;2.30;2.00;;;;;;;8.41;84.29;98577.44;3753517;77;44190;-25
2021/04/02 13:34:20;;;;;;;2.47;1.90;;;;;;;8.26;84.06;98562.75;3759114;77;43794;-24
2021/04/02 13:39:26;;;;;;;3.12;2.00;;;;;;;8.34;81.83;98552.17;3760808;79;43458;-24
2021/04/02 13:44:33;;;;;;;2.15;1.95;;;;;;;9.03;82.73;98553.32;3762844;77;42928;-24
2021/04/02 13:49:42;;;;;;;2.90;2.00;;;;;;;9.58;75.87;98551.63;3760188;78;43251;-25
2021/04/02 13:54:49;;;;;;;2.70;2.00;;;;;;;9.70;74.92;98562.52;3741795;78;43223;-24
2021/04/02 13:59:55;;;;;;;2.77;2.25;;;;;;;9.12;78.33;98556.45;3736630;79;43753;-24
2021/04/02 14:05:02;;;;;;;3.05;2.45;;;;;;;9.07;74.76;98551.53;3736659;78;44383;-23
2021/04/02 14:10:13;;;;;;;2.85;2.27;;;;;;;9.63;77.63;98524.63;3736043;78;43720;-22
2021/04/02 14:15:21;;;;;;;2.67;2.33;;;;;;;9.88;70.50;98532.91;3733503;79;43986;-22
2021/04/02 14:20:30;;;;;;;3.27;2.22;;;;;;;9.99;68.62;98533.18;3736737;79;43918;-22
2021/04/02 14:25:37;;;;;;;3.50;2.33;;;;;;;10.03;71.17;98538.09;3736701;79;43334;-23
2021/04/02 14:30:45;;;;;;;3.75;2.40;;;;;;;9.52;67.72;98535.60;3736509;78;44042;-24
2021/04/02 14:35:51;;;;;;;2.77;2.40;;;;;;;9.85;69.59;98528.68;3733763;79;43697;-22
2021/04/02 14:40:58;;;;;;;3.75;2.60;;;;;;;9.67;66.83;98521.13;3736320;78;44412;-25
2021/04/02 14:46:04;;;;;;;4.30;3.00;;;;;;;9.22;65.56;98522.34;3708436;78;43677;-25
2021/04/02 14:51:10;;;;;;;2.80;2.50;;;;;;;10.10;63.73;98523.52;3735691;79;43698;-23
2021/04/02 14:56:18;;;;;;;3.47;2.55;;;;;;;10.94;64.71;98508.25;3759060;78;43697;-23
2021/04/02 15:01:25;;;;;;;4.78;2.90;;;;;;;11.17;65.71;98496.88;3760240;77;43432;-24
2021/04/02 15:06:31;;;;;;;3.87;2.90;;;;;;;11.40;63.26;98477.73;3758549;79;44500;-23
2021/04/02 15:11:38;;;;;;;3.58;2.90;;;;;;;11.14;62.73;98464.84;3759953;79;43676;-24
2021/04/02 15:16:45;;;;;;;3.98;2.83;;;;;;;11.22;63.05;98437.92;3759057;77;43689;-24
2021/04/02 15:21:52;;;;;;;4.15;2.90;;;;;;;11.75;59.44;98420.95;3759707;77;43759;-24
2021/04/02 15:26:58;;;;;;;3.37;2.50;;;;;;;11.37;55.88;98428.16;3759298;77;43727;-24
2021/04/02 15:32:07;;;;;;;6.15;2.90;;;;;;;12.01;58.57;98412.69;3758178;77;43633;-24
2021/04/02 15:37:13;;;;;;;3.72;2.95;;;;;;;11.83;59.39;98411.48;3758209;77;44038;-25
2021/04/02 15:42:20;;;;;;;3.77;3.25;;;;;;;11.88;58.88;98435.27;3759731;79;44372;-24
2021/04/02 15:47:27;;;;;;;3.77;2.90;;;;;;;11.14;60.43;98432.00;3759664;79;43411;-24
2021/04/02 15:52:34;;;;;;;3.75;3.05;;;;;;;11.01;58.67;98437.01;3758381;77;44042;-24
2021/04/02 15:57:41;;;;;;;5.33;3.40;;;;;;;11.12;60.83;98438.05;3758929;77;44426;-24
2021/04/02 16:02:48;;;;;;;4.33;3.40;;;;;;;10.87;59.98;98439.84;3756642;79;43500;-25
2021/04/02 16:07:56;;;;;;;3.62;3.00;;;;;;;11.34;62.21;98441.99;3760133;79;43735;-25
2021/04/02 16:13:04;;;;;;;4.53;3.58;;;;;;;10.74;60.44;98446.52;3760043;79;43266;-25
2021/04/02 16:18:10;;;;;;;5.00;3.58;;;;;;;10.08;62.58;98442.06;3758684;77;43385;-25
2021/04/02 16:23:18;;;;;;;4.53;3.15;;;;;;;10.05;65.02;98442.89;3759972;79;43357;-25
2021/04/02 16:28:25;;;;;;;5.30;3.60;;;;;;;9.90;65.67;98456.07;3757746;77;44048;-25
2021/04/02 16:33:31;;;;;;;4.95;3.55;;;;;;;9.84;65.61;98448.95;3758852;79;44141;-25
2021/04/02 16:38:37;;;;;;;6.53;3.85;;;;;;;9.78;66.28;98457.66;3759573;79;44037;-25
2021/04/02 16:43:44;;;;;;;4.70;3.50;;;;;;;9.72;65.15;98455.58;3760748;79;43705;-25
2021/04/02 16:48:50;;;;;;;8.45;4.92;;;;;;;9.63;68.34;98461.41;3760150;77;43424;-24
2021/04/02 16:53:56;;;;;;;8.85;5.00;;;;;;;8.58;71.38;98463.61;3754408;78;44061;-24
2021/04/02 16:59:08;;;;;;;8.85;4.80;;;;;;;8.23;76.00;98464.59;3730347;78;44504;-24
2021/04/02 17:04:15;;;;;;;10.53;4.90;;;;;;;7.82;78.44;98459.95;3716983;78;43039;-25
2021/04/02 17:09:22;;;;;;;9.08;4.85;;;;;;;7.38;76.51;98483.98;3736426;79;43372;-24
2021/04/02 17:14:29;;;;;;;9.15;5.12;;;;;;;6.95;79.29;98487.86;3735201;79;44057;-24
2021/04/02 17:19:35;;;;;;;7.90;4.75;;;;;;;6.81;80.44;98498.94;3734897;79;43351;-24
2021/04/02 17:24:42;;;;;;;9.85;4.65;;;;;;;6.58;79.97;98506.69;3729917;79;44122;-24
2021/04/02 17:29:49;;;;;;;9.28;4.58;;;;;;;6.55;81.93;98527.50;3735436;79;43995;-24
2021/04/02 17:34:56;;;;;;;10.32;4.95;;;;;;;6.48;80.96;98520.02;3735240;78;43670;-23
2021/04/02 17:40:04;;;;;;;11.48;4.83;;;;;;;6.28;82.53;98532.94;3734834;78;43468;-24
2021/04/02 17:45:14;;;;;;;9.93;5.63;;;;;;;6.31;84.65;98539.34;3734760;79;43469;-23
2021/04/02 17:50:22;;;;;;;14.25;5.50;;;;;;;5.99;85.89;98540.22;3732984;79;43702;-23
2021/04/02 17:55:33;;;;;;;11.90;6.12;;;;;;;5.68;88.04;98538.78;3747938;78;43721;-23
2021/04/02 18:00:41;;;;;;;11.50;5.15;;;;;;;5.62;89.52;98556.18;3760048;78;44525;-23
2021/04/02 18:05:50;;;;;;;10.88;5.53;;;;;;;5.49;88.98;98558.98;3760429;78;26432;-23
2021/04/02 18:10:56;;;;;;;13.38;5.15;;;;;;;5.46;89.22;98561.94;3760208;77;43721;-24
2021/04/02 18:16:03;;;;;;;10.45;4.62;;;;;;;5.33;90.11;98570.59;3759776;77;44069;-23
2021/04/02 18:21:09;;;;;;;11.68;4.97;;;;;;;5.34;91.64;98581.13;3759907;79;44360;-23
2021/04/02 18:26:15;;;;;;;10.03;5.15;;;;;;;5.23;92.50;98576.64;3760619;77;44420;-23
2021/04/02 18:31:21;;;;;;;8.27;4.57;;;;;;;5.19;93.00;98593.91;3760082;77;43716;-23
2021/04/02 18:36:28;;;;;;;6.75;3.52;;;;;;;5.23;91.43;98590.00;3745955;77;69902;-23
2021/04/02 18:41:35;;;;;;;7.97;3.40;;;;;;;5.20;87.76;98598.28;3740650;77;44442;-23
2021/04/02 18:46:41;;;;;;;9.20;3.40;;;;;;;5.21;85.61;98599.98;3753228;77;44436;-24
2021/04/02 18:51:51;;;;;;;11.78;3.30;;;;;;;5.19;83.55;98595.25;3751744;78;42967;-23
2021/04/02 18:56:56;;;;;;;8.53;3.08;;;;;;;5.21;80.85;98613.81;3759814;77;43973;-25
2021/04/02 19:02:03;;;;;;;7.78;3.15;;;;;;;5.19;81.51;98607.27;3760124;79;43998;-25
2021/04/02 19:07:10;;;;;;;7.53;3.17;;;;;;;5.13;81.97;98605.56;3759123;79;69835;-25
2021/04/02 19:12:18;;;;;;;6.05;3.25;;;;;;;5.15;82.40;98622.33;3759711;79;43046;-25
2021/04/02 19:17:25;;;;;;;8.20;3.20;;;;;;;5.17;83.84;98613.21;3755401;77;44034;-25
2021/04/02 19:22:32;;;;;;;7.23;3.43;;;;;;;5.20;84.31;98603.63;3757075;77;43617;-25
2021/04/02 19:27:38;;;;;;;5.73;3.03;;;;;;;5.15;83.03;98605.80;3758306;79;69200;-25
2021/04/02 19:32:45;;;;;;;7.10;3.03;;;;;;;5.15;80.21;98610.30;3752808;77;43688;-25
2021/04/02 19:37:52;;;;;;;4.90;2.90;;;;;;;5.21;84.71;98613.34;3758905;77;43685;-25
2021/04/02 19:42:59;;;;;;;8.27;2.70;;;;;;;5.21;83.17;98616.48;3758501;78;69149;-24
2021/04/02 19:48:06;;;;;;;5.28;2.85;;;;;;;5.14;76.80;98626.80;3759192;79;44254;-25
2021/04/02 19:53:12;;;;;;;6.58;2.67;;;;;;;5.23;80.26;98613.20;3759220;77;44028;-25
2021/04/02 19:58:20;;;;;;;8.70;3.03;;;;;;;5.23;78.79;98616.71;3759453;77;45106;-24
2021/04/02 20:03:27;;;;;;;7.85;2.80;;;;;;;5.16;80.51;98611.51;3760274;79;42810;-24
2021/04/02 20:08:34;;;;;;;5.83;2.77;;;;;;;5.17;81.33;98611.88;3759382;77;44418;-24
2021/04/02 20:13:39;;;;;;;6.43;2.87;;;;;;;5.14;83.09;98608.11;3759832;79;43983;-24
2021/04/02 20:18:45;;;;;;;7.33;2.73;;;;;;;5.10;83.65;98605.34;3760431;79;43578;-24
2021/04/02 20:23:51;;;;;;;7.12;2.75;;;;;;;5.05;84.30;98600.83;3760764;79;44793;-24
2021/04/02 20:28:58;;;;;;;7.53;3.30;;;;;;;5.05;86.12;98604.37;3759558;77;43686;-24
2021/04/02 20:34:04;;;;;;;6.37;3.10;;;;;;;5.05;89.06;98594.16;3731553;79;42602;-25
2021/04/02 20:39:11;;;;;;;6.43;2.80;;;;;;;4.98;89.20;98583.61;3759741;79;43697;-24
2021/04/02 20:44:17;;;;;;;9.57;3.43;;;;;;;4.92;88.73;98579.11;3760453;77;44087;-24
2021/04/02 20:49:23;;;;;;;7.97;3.20;;;;;;;4.93;89.85;98580.81;3759658;77;42928;-24
2021/04/02 20:54:29;;;;;;;10.03;3.40;;;;;;;4.90;91.08;98595.72;3760166;79;43611;-24
2021/04/02 20:59:35;;;;;;;6.67;3.40;;;;;;;4.86;92.45;98594.29;3760536;78;43479;-24
2021/04/02 21:04:41;;;;;;;8.47;3.57;;;;;;;4.89;92.05;98596.69;3758670;77;69282;-24
2021/04/02 21:09:47;;;;;;;8.07;3.50;;;;;;;4.82;92.80;98606.67;3760249;79;42372;-24
2021/04/02 21:14:53;;;;;;;7.35;3.02;;;;;;;4.84;92.90;98597.56;3760248;79;44011;-26
2021/04/02 21:19:59;;;;;;;9.33;4.07;;;;;;;4.80;92.96;98592.59;3760482;79;44008;-24
2021/04/02 21:25:08;;;;;;;8.70;3.90;;;;;;;4.80;94.26;98600.59;3761962;79;44040;-24
2021/04/02 21:30:18;;;;;;;6.33;3.70;;;;;;;4.73;94.53;98593.55;3757940;79;43992;-26
2021/04/02 21:35:24;;;;;;;7.10;3.77;;;;;;;4.76;93.54;98582.14;3755684;77;44054;-26
2021/04/02 21:40:30;;;;;;;8.10;3.83;;;;;;;4.74;94.73;98584.58;3759829;77;43679;-26
2021/04/02 21:45:37;;;;;;;5.97;3.33;;;;;;;4.72;94.26;98578.50;3760118;79;44364;-26
2021/04/02 21:50:43;;;;;;;7.43;3.60;;;;;;;4.71;95.29;98576.30;3760210;79;43471;-24
2021/04/02 21:55:50;;;;;;;10.10;3.73;;;;;;;4.72;96.09;98567.83;3760464;77;43678;-24
2021/04/02 22:00:57;;;;;;;7.60;2.90;;;;;;;4.71;96.97;98575.46;3757273;77;44003;-24
2021/04/02 22:06:04;;;;;;;11.77;3.50;;;;;;;4.64;97.05;98564.41;3760275;79;43690;-25
2021/04/02 22:11:10;;;;;;;8.25;3.62;;;;;;;4.69;98.38;98572.06;3762219;77;44034;-25
2021/04/02 22:16:16;;;;;;;6.87;3.30;;;;;;;4.63;98.46;98575.59;3759729;77;43320;-24
2021/04/02 22:21:23;;;;;;;7.80;3.63;;;;;;;4.67;99.43;98586.88;3759789;79;44445;-24
2021/04/02 22:26:29;;;;;;;8.03;3.40;;;;;;;4.65;99.70;98584.80;3760196;79;43384;-24
2021/04/02 22:31:35;;;;;;;6.00;3.25;;;;;;;4.69;100.00;98579.59;3758247;79;43709;-24
2021/04/02 22:36:41;;;;;;;7.53;3.37;;;;;;;4.58;100.00;98592.43;3759954;79;43733;-26
2021/04/02 22:41:47;;;;;;;6.72;3.55;;;;;;;4.58;100.00;98579.59;3760091;79;43709;-24
2021/04/02 22:46:53;;;;;;;6.87;3.40;;;;;;;4.53;100.00;98572.41;3759960;77;44649;-25
2021/04/02 22:52:00;;;;;;;5.20;2.97;;;;;;;4.49;100.00;98566.47;3759120;77;69134;-25
2021/04/02 22:57:07;;;;;;;8.33;3.33;;;;;;;4.41;100.00;98570.23;3759931;79;43066;-25
2021/04/02 23:02:13;;;;;;;6.87;3.20;;;;;;;4.39;100.00;98565.48;3757028;79;44084;-25
2021/04/02 23:07:21;;;;;;;6.90;3.50;;;;;;;4.35;100.00;98578.19;3755723;79;42939;-25
2021/04/02 23:12:27;;;;;;;7.33;3.23;;;;;;;4.32;100.00;98573.94;3760047;79;43685;-25
2021/04/02 23:17:33;;;;;;;11.08;3.55;;;;;;;4.34;100.00;98582.31;3760027;79;44230;-25
2021/04/02 23:22:39;;;;;;;5.55;3.30;;;;;;;4.34;100.00;98587.65;3759627;77;43684;-23
2021/04/02 23:27:46;;;;;;;9.63;3.43;;;;;;;4.30;100.00;98589.70;3757912;79;70163;-26
2021/04/02 23:32:54;;;;;;;7.87;3.30;;;;;;;4.30;100.00;98584.37;3759977;79;44049;-24
2021/04/02 23:38:01;;;;;;;10.87;3.40;;;;;;;4.25;100.00;98586.53;3760112;79;44407;-24
2021/04/02 23:43:09;;;;;;;9.57;3.80;;;;;;;4.30;100.00;98589.21;3760216;79;44688;-24
2021/04/02 23:48:15;;;;;;;8.53;3.50;;;;;;;4.27;100.00;98588.13;3760146;79;44095;-26
2021/04/02 23:53:22;;;;;;;8.28;3.42;;;;;;;4.28;100.00;98599.17;3759261;77;44486;-23
2021/04/02 23:58:29;;;;;;;6.07;3.10;;;;;;;4.30;100.00;98593.70;3755437;77;43451;-25
